sensor_id;sensor_type;location;lat;lon;timestamp;P1;durP1;ratioP1;P2;durP2;ratioP2
21014;SDS011;19207;-23.482;-46.500;2023-06-14T00:01:16;11.10;;;6.03;;
21014;SDS011;19207;-23.482;-46.500;2023-06-14T00:04:05;7.25;;;5.53;;
21014;SDS011;19207;-23.482;-46.500;2023-06-14T00:06:55;8.77;;;5.32;;
21014;SDS011;19207;-23.482;-46.500;2023-06-14T00:09:45;9.57;;;6.43;;
21014;SDS011;19207;-23.482;-46.500;2023-06-14T00:12:33;8.13;;;5.97;;
21014;SDS011;19207;-23.482;-46.500;2023-06-14T00:15:20;9.00;;;6.68;;
21014;SDS011;19207;-23.482;-46.500;2023-06-14T00:18:09;16.50;;;6.87;;
21014;SDS011;19207;-23.482;-46.500;2023-06-14T00:20:57;8.35;;;6.30;;
21014;SDS011;19207;-23.482;-46.500;2023-06-14T00:23:44;9.57;;;6.78;;
21014;SDS011;19207;-23.482;-46.500;2023-06-14T00:26:31;9.00;;;6.93;;
21014;SDS011;19207;-23.482;-46.500;2023-06-14T00:29:17;15.35;;;7.75;;
21014;SDS011;19207;-23.482;-46.500;2023-06-14T00:32:04;9.07;;;6.95;;
21014;SDS011;19207;-23.482;-46.500;2023-06-14T00:34:55;10.23;;;7.18;;
21014;SDS011;19207;-23.482;-46.500;2023-06-14T00:37:42;13.32;;;7.20;;
21014;SDS011;19207;-23.482;-46.500;2023-06-14T00:40:30;9.75;;;7.28;;
21014;SDS011;19207;-23.482;-46.500;2023-06-14T00:43:17;7.35;;;6.43;;
21014;SDS011;19207;-23.482;-46.500;2023-06-14T00:46:06;9.18;;;7.12;;
21014;SDS011;19207;-23.482;-46.500;2023-06-14T00:48:54;12.70;;;8.30;;
21014;SDS011;19207;-23.482;-46.500;2023-06-14T00:51:41;10.32;;;7.95;;
21014;SDS011;19207;-23.482;-46.500;2023-06-14T00:54:29;12.30;;;7.50;;
21014;SDS011;19207;-23.482;-46.500;2023-06-14T00:57:16;10.10;;;7.30;;
21014;SDS011;19207;-23.482;-46.500;2023-06-14T01:00:03;7.82;;;6.62;;
21014;SDS011;19207;-23.482;-46.500;2023-06-14T01:03:12;8.25;;;6.28;;
21014;SDS011;19207;-23.482;-46.500;2023-06-14T01:09:16;6.07;;;4.50;;
21014;SDS011;19207;-23.482;-46.500;2023-06-14T01:12:07;4.25;;;3.85;;
21014;SDS011;19207;-23.482;-46.500;2023-06-14T01:14:59;5.43;;;3.62;;
21014;SDS011;19207;-23.482;-46.500;2023-06-14T01:17:46;3.90;;;3.47;;
21014;SDS011;19207;-23.482;-46.500;2023-06-14T01:20:36;4.50;;;3.60;;
21014;SDS011;19207;-23.482;-46.500;2023-06-14T01:23:24;3.58;;;3.20;;
21014;SDS011;19207;-23.482;-46.500;2023-06-14T01:26:24;3.95;;;3.58;;
21014;SDS011;19207;-23.482;-46.500;2023-06-14T01:29:14;4.80;;;4.25;;
21014;SDS011;19207;-23.482;-46.500;2023-06-14T01:32:04;3.85;;;3.50;;
21014;SDS011;19207;-23.482;-46.500;2023-06-14T01:34:51;3.72;;;3.33;;
21014;SDS011;19207;-23.482;-46.500;2023-06-14T01:37:38;3.42;;;3.12;;
21014;SDS011;19207;-23.482;-46.500;2023-06-14T01:40:25;4.00;;;3.30;;
21014;SDS011;19207;-23.482;-46.500;2023-06-14T01:43:16;4.32;;;3.58;;
21014;SDS011;19207;-23.482;-46.500;2023-06-14T01:46:03;4.53;;;3.37;;
21014;SDS011;19207;-23.482;-46.500;2023-06-14T01:48:51;4.10;;;3.67;;
21014;SDS011;19207;-23.482;-46.500;2023-06-14T01:51:38;3.85;;;3.42;;
21014;SDS011;19207;-23.482;-46.500;2023-06-14T01:54:25;6.87;;;3.42;;
21014;SDS011;19207;-23.482;-46.500;2023-06-14T01:57:14;5.50;;;3.60;;
21014;SDS011;19207;-23.482;-46.500;2023-06-14T02:00:01;5.28;;;3.75;;
21014;SDS011;19207;-23.482;-46.500;2023-06-14T02:02:57;5.12;;;3.40;;
21014;SDS011;19207;-23.482;-46.500;2023-06-14T02:05:45;5.20;;;3.60;;
21014;SDS011;19207;-23.482;-46.500;2023-06-14T02:08:32;4.43;;;3.90;;
21014;SDS011;19207;-23.482;-46.500;2023-06-14T02:11:19;4.75;;;3.58;;
21014;SDS011;19207;-23.482;-46.500;2023-06-14T02:14:06;5.40;;;3.62;;
21014;SDS011;19207;-23.482;-46.500;2023-06-14T02:16:56;5.18;;;4.28;;
21014;SDS011;19207;-23.482;-46.500;2023-06-14T02:19:43;5.65;;;3.90;;
21014;SDS011;19207;-23.482;-46.500;2023-06-14T02:22:30;4.18;;;3.80;;
21014;SDS011;19207;-23.482;-46.500;2023-06-14T02:25:17;4.80;;;4.00;;
21014;SDS011;19207;-23.482;-46.500;2023-06-14T02:28:04;5.00;;;3.80;;
21014;SDS011;19207;-23.482;-46.500;2023-06-14T02:30:51;5.50;;;3.80;;
21014;SDS011;19207;-23.482;-46.500;2023-06-14T02:33:37;4.20;;;3.80;;
21014;SDS011;19207;-23.482;-46.500;2023-06-14T02:36:25;8.50;;;3.47;;
21014;SDS011;19207;-23.482;-46.500;2023-06-14T02:39:12;3.60;;;3.30;;
21014;SDS011;19207;-23.482;-46.500;2023-06-14T02:41:59;6.53;;;3.25;;
21014;SDS011;19207;-23.482;-46.500;2023-06-14T02:44:45;3.60;;;3.20;;
21014;SDS011;19207;-23.482;-46.500;2023-06-14T02:47:36;3.72;;;3.28;;
21014;SDS011;19207;-23.482;-46.500;2023-06-14T02:50:23;3.40;;;3.10;;
21014;SDS011;19207;-23.482;-46.500;2023-06-14T02:53:10;3.30;;;3.00;;
21014;SDS011;19207;-23.482;-46.500;2023-06-14T02:55:57;4.20;;;3.10;;
21014;SDS011;19207;-23.482;-46.500;2023-06-14T02:58:44;3.10;;;2.80;;
21014;SDS011;19207;-23.482;-46.500;2023-06-14T03:01:33;3.30;;;3.00;;
21014;SDS011;19207;-23.482;-46.500;2023-06-14T03:04:21;3.30;;;2.92;;
21014;SDS011;19207;-23.482;-46.500;2023-06-14T03:07:08;3.12;;;2.80;;
21014;SDS011;19207;-23.482;-46.500;2023-06-14T03:09:55;3.22;;;2.78;;
21014;SDS011;19207;-23.482;-46.500;2023-06-14T03:12:42;2.72;;;2.53;;
21014;SDS011;19207;-23.482;-46.500;2023-06-14T03:15:29;3.28;;;2.70;;
21014;SDS011;19207;-23.482;-46.500;2023-06-14T03:18:17;2.83;;;2.62;;
21014;SDS011;19207;-23.482;-46.500;2023-06-14T03:21:08;6.28;;;2.80;;
21014;SDS011;19207;-23.482;-46.500;2023-06-14T03:23:56;5.05;;;3.40;;
21014;SDS011;19207;-23.482;-46.500;2023-06-14T03:26:42;6.35;;;3.40;;
21014;SDS011;19207;-23.482;-46.500;2023-06-14T03:29:29;4.85;;;3.62;;
21014;SDS011;19207;-23.482;-46.500;2023-06-14T03:32:16;10.82;;;5.90;;
21014;SDS011;19207;-23.482;-46.500;2023-06-14T03:35:03;13.70;;;7.47;;
21014;SDS011;19207;-23.482;-46.500;2023-06-14T03:37:51;11.48;;;7.72;;
21014;SDS011;19207;-23.482;-46.500;2023-06-14T03:40:37;13.10;;;8.20;;
21014;SDS011;19207;-23.482;-46.500;2023-06-14T03:43:24;16.02;;;9.30;;
21014;SDS011;19207;-23.482;-46.500;2023-06-14T03:46:11;13.30;;;8.70;;
21014;SDS011;19207;-23.482;-46.500;2023-06-14T03:48:59;12.75;;;8.48;;
21014;SDS011;19207;-23.482;-46.500;2023-06-14T03:51:47;15.02;;;8.60;;
21014;SDS011;19207;-23.482;-46.500;2023-06-14T03:54:36;11.55;;;7.55;;
21014;SDS011;19207;-23.482;-46.500;2023-06-14T03:57:23;15.30;;;7.90;;
21014;SDS011;19207;-23.482;-46.500;2023-06-14T04:00:10;14.68;;;7.80;;
21014;SDS011;19207;-23.482;-46.500;2023-06-14T04:02:59;12.15;;;7.53;;
21014;SDS011;19207;-23.482;-46.500;2023-06-14T04:05:48;7.70;;;5.15;;
21014;SDS011;19207;-23.482;-46.500;2023-06-14T04:08:35;6.97;;;4.55;;
21014;SDS011;19207;-23.482;-46.500;2023-06-14T04:11:25;6.87;;;3.87;;
21014;SDS011;19207;-23.482;-46.500;2023-06-14T04:14:12;3.65;;;3.22;;
21014;SDS011;19207;-23.482;-46.500;2023-06-14T04:16:58;7.57;;;4.18;;
21014;SDS011;19207;-23.482;-46.500;2023-06-14T04:19:46;5.03;;;3.50;;
21014;SDS011;19207;-23.482;-46.500;2023-06-14T04:22:33;3.58;;;3.20;;
21014;SDS011;19207;-23.482;-46.500;2023-06-14T04:25:21;4.70;;;3.60;;
21014;SDS011;19207;-23.482;-46.500;2023-06-14T04:28:11;5.55;;;3.53;;
21014;SDS011;19207;-23.482;-46.500;2023-06-14T04:31:00;6.40;;;3.95;;
21014;SDS011;19207;-23.482;-46.500;2023-06-14T04:33:47;5.93;;;3.85;;
21014;SDS011;19207;-23.482;-46.500;2023-06-14T04:36:36;5.70;;;3.72;;
21014;SDS011;19207;-23.482;-46.500;2023-06-14T04:39:22;6.82;;;4.30;;
21014;SDS011;19207;-23.482;-46.500;2023-06-14T04:42:10;6.10;;;3.80;;
21014;SDS011;19207;-23.482;-46.500;2023-06-14T04:44:59;7.45;;;3.85;;
21014;SDS011;19207;-23.482;-46.500;2023-06-14T04:47:46;6.30;;;4.07;;
21014;SDS011;19207;-23.482;-46.500;2023-06-14T04:50:33;8.70;;;4.70;;
21014;SDS011;19207;-23.482;-46.500;2023-06-14T04:53:20;5.60;;;4.00;;
21014;SDS011;19207;-23.482;-46.500;2023-06-14T04:56:08;7.35;;;4.43;;
21014;SDS011;19207;-23.482;-46.500;2023-06-14T04:58:55;10.13;;;4.87;;
21014;SDS011;19207;-23.482;-46.500;2023-06-14T05:01:41;7.68;;;4.00;;
21014;SDS011;19207;-23.482;-46.500;2023-06-14T05:04:33;6.15;;;4.10;;
21014;SDS011;19207;-23.482;-46.500;2023-06-14T05:07:25;10.75;;;4.82;;
21014;SDS011;19207;-23.482;-46.500;2023-06-14T05:10:12;7.95;;;5.05;;
21014;SDS011;19207;-23.482;-46.500;2023-06-14T05:12:59;5.00;;;3.90;;
21014;SDS011;19207;-23.482;-46.500;2023-06-14T05:15:45;8.00;;;4.30;;
21014;SDS011;19207;-23.482;-46.500;2023-06-14T05:18:32;7.68;;;4.10;;
21014;SDS011;19207;-23.482;-46.500;2023-06-14T05:21:20;6.05;;;4.15;;
21014;SDS011;19207;-23.482;-46.500;2023-06-14T05:24:07;6.45;;;4.43;;
21014;SDS011;19207;-23.482;-46.500;2023-06-14T05:26:55;11.85;;;6.25;;
21014;SDS011;19207;-23.482;-46.500;2023-06-14T05:29:42;9.70;;;5.55;;
21014;SDS011;19207;-23.482;-46.500;2023-06-14T05:32:29;9.32;;;5.07;;
21014;SDS011;19207;-23.482;-46.500;2023-06-14T05:35:16;8.38;;;4.80;;
21014;SDS011;19207;-23.482;-46.500;2023-06-14T05:38:03;9.30;;;6.20;;
21014;SDS011;19207;-23.482;-46.500;2023-06-14T05:40:50;9.18;;;5.93;;
21014;SDS011;19207;-23.482;-46.500;2023-06-14T05:43:38;10.27;;;6.28;;
21014;SDS011;19207;-23.482;-46.500;2023-06-14T05:46:26;11.32;;;6.25;;
21014;SDS011;19207;-23.482;-46.500;2023-06-14T05:49:13;9.40;;;6.35;;
21014;SDS011;19207;-23.482;-46.500;2023-06-14T05:52:00;9.63;;;6.25;;
21014;SDS011;19207;-23.482;-46.500;2023-06-14T05:54:47;9.38;;;6.32;;
21014;SDS011;19207;-23.482;-46.500;2023-06-14T05:57:34;11.60;;;7.20;;
21014;SDS011;19207;-23.482;-46.500;2023-06-14T06:00:21;12.37;;;7.90;;
21014;SDS011;19207;-23.482;-46.500;2023-06-14T06:03:08;10.27;;;6.55;;
21014;SDS011;19207;-23.482;-46.500;2023-06-14T06:05:56;10.90;;;6.03;;
21014;SDS011;19207;-23.482;-46.500;2023-06-14T06:08:43;6.70;;;5.28;;
21014;SDS011;19207;-23.482;-46.500;2023-06-14T06:11:30;7.65;;;5.45;;
21014;SDS011;19207;-23.482;-46.500;2023-06-14T06:14:16;8.73;;;6.00;;
21014;SDS011;19207;-23.482;-46.500;2023-06-14T06:17:03;7.28;;;5.28;;
21014;SDS011;19207;-23.482;-46.500;2023-06-14T06:19:51;5.50;;;4.43;;
21014;SDS011;19207;-23.482;-46.500;2023-06-14T06:22:38;4.93;;;3.58;;
21014;SDS011;19207;-23.482;-46.500;2023-06-14T06:25:43;3.60;;;3.20;;
21014;SDS011;19207;-23.482;-46.500;2023-06-14T06:28:30;4.45;;;3.15;;
21014;SDS011;19207;-23.482;-46.500;2023-06-14T06:31:17;4.47;;;3.20;;
21014;SDS011;19207;-23.482;-46.500;2023-06-14T06:34:05;3.78;;;3.37;;
21014;SDS011;19207;-23.482;-46.500;2023-06-14T06:36:52;4.95;;;3.45;;
21014;SDS011;19207;-23.482;-46.500;2023-06-14T06:39:40;3.83;;;3.22;;
21014;SDS011;19207;-23.482;-46.500;2023-06-14T06:42:27;6.20;;;3.78;;
21014;SDS011;19207;-23.482;-46.500;2023-06-14T06:45:14;7.18;;;4.35;;
21014;SDS011;19207;-23.482;-46.500;2023-06-14T06:48:01;4.78;;;3.97;;
21014;SDS011;19207;-23.482;-46.500;2023-06-14T06:50:48;5.53;;;4.15;;
21014;SDS011;19207;-23.482;-46.500;2023-06-14T06:53:35;6.35;;;4.50;;
21014;SDS011;19207;-23.482;-46.500;2023-06-14T06:56:22;7.62;;;4.40;;
21014;SDS011;19207;-23.482;-46.500;2023-06-14T06:59:09;7.18;;;4.57;;
21014;SDS011;19207;-23.482;-46.500;2023-06-14T07:01:56;9.20;;;4.43;;
21014;SDS011;19207;-23.482;-46.500;2023-06-14T07:04:43;7.95;;;5.62;;
21014;SDS011;19207;-23.482;-46.500;2023-06-14T07:07:30;7.60;;;5.03;;
21014;SDS011;19207;-23.482;-46.500;2023-06-14T07:10:17;7.00;;;4.62;;
21014;SDS011;19207;-23.482;-46.500;2023-06-14T07:13:04;14.50;;;5.50;;
21014;SDS011;19207;-23.482;-46.500;2023-06-14T07:15:54;10.18;;;5.20;;
21014;SDS011;19207;-23.482;-46.500;2023-06-14T07:18:41;8.13;;;5.32;;
21014;SDS011;19207;-23.482;-46.500;2023-06-14T07:21:28;10.38;;;5.22;;
21014;SDS011;19207;-23.482;-46.500;2023-06-14T07:24:16;8.90;;;5.78;;
21014;SDS011;19207;-23.482;-46.500;2023-06-14T07:27:03;10.73;;;5.40;;
21014;SDS011;19207;-23.482;-46.500;2023-06-14T07:29:50;10.63;;;5.57;;
21014;SDS011;19207;-23.482;-46.500;2023-06-14T07:32:37;13.23;;;5.75;;
21014;SDS011;19207;-23.482;-46.500;2023-06-14T07:35:25;9.18;;;6.15;;
21014;SDS011;19207;-23.482;-46.500;2023-06-14T07:38:12;9.65;;;5.57;;
21014;SDS011;19207;-23.482;-46.500;2023-06-14T07:40:59;11.32;;;5.60;;
21014;SDS011;19207;-23.482;-46.500;2023-06-14T07:43:46;15.80;;;6.90;;
21014;SDS011;19207;-23.482;-46.500;2023-06-14T07:46:33;14.95;;;6.28;;
21014;SDS011;19207;-23.482;-46.500;2023-06-14T07:49:20;9.32;;;6.03;;
21014;SDS011;19207;-23.482;-46.500;2023-06-14T07:52:07;14.55;;;6.93;;
21014;SDS011;19207;-23.482;-46.500;2023-06-14T07:54:54;11.02;;;5.68;;
21014;SDS011;19207;-23.482;-46.500;2023-06-14T07:57:42;11.65;;;5.62;;
21014;SDS011;19207;-23.482;-46.500;2023-06-14T08:00:29;10.50;;;6.05;;
21014;SDS011;19207;-23.482;-46.500;2023-06-14T08:03:16;13.05;;;6.32;;
21014;SDS011;19207;-23.482;-46.500;2023-06-14T08:06:06;10.55;;;5.45;;
21014;SDS011;19207;-23.482;-46.500;2023-06-14T08:08:53;10.98;;;6.22;;
21014;SDS011;19207;-23.482;-46.500;2023-06-14T08:11:40;13.68;;;5.95;;
21014;SDS011;19207;-23.482;-46.500;2023-06-14T08:14:27;9.20;;;6.20;;
21014;SDS011;19207;-23.482;-46.500;2023-06-14T08:17:14;9.20;;;5.97;;
21014;SDS011;19207;-23.482;-46.500;2023-06-14T08:20:01;11.27;;;6.22;;
21014;SDS011;19207;-23.482;-46.500;2023-06-14T08:22:50;11.00;;;6.53;;
21014;SDS011;19207;-23.482;-46.500;2023-06-14T08:25:41;16.73;;;7.20;;
21014;SDS011;19207;-23.482;-46.500;2023-06-14T08:28:28;15.80;;;7.60;;
21014;SDS011;19207;-23.482;-46.500;2023-06-14T08:31:15;14.15;;;7.93;;
21014;SDS011;19207;-23.482;-46.500;2023-06-14T08:34:03;11.15;;;7.40;;
21014;SDS011;19207;-23.482;-46.500;2023-06-14T08:36:50;11.35;;;6.75;;
21014;SDS011;19207;-23.482;-46.500;2023-06-14T08:39:37;12.52;;;6.28;;
21014;SDS011;19207;-23.482;-46.500;2023-06-14T08:42:24;11.80;;;5.87;;
21014;SDS011;19207;-23.482;-46.500;2023-06-14T08:45:11;14.43;;;7.28;;
21014;SDS011;19207;-23.482;-46.500;2023-06-14T08:47:57;11.35;;;6.50;;
21014;SDS011;19207;-23.482;-46.500;2023-06-14T08:50:44;14.52;;;7.30;;
21014;SDS011;19207;-23.482;-46.500;2023-06-14T08:53:32;13.95;;;7.22;;
21014;SDS011;19207;-23.482;-46.500;2023-06-14T08:56:19;15.45;;;7.45;;
21014;SDS011;19207;-23.482;-46.500;2023-06-14T08:59:07;14.68;;;7.20;;
21014;SDS011;19207;-23.482;-46.500;2023-06-14T09:01:54;14.60;;;7.28;;
21014;SDS011;19207;-23.482;-46.500;2023-06-14T09:04:42;17.37;;;8.50;;
21014;SDS011;19207;-23.482;-46.500;2023-06-14T09:07:29;16.27;;;7.70;;
21014;SDS011;19207;-23.482;-46.500;2023-06-14T09:10:16;19.40;;;8.82;;
21014;SDS011;19207;-23.482;-46.500;2023-06-14T09:13:03;20.10;;;10.40;;
21014;SDS011;19207;-23.482;-46.500;2023-06-14T09:15:50;19.42;;;10.15;;
21014;SDS011;19207;-23.482;-46.500;2023-06-14T09:18:38;21.75;;;9.73;;
21014;SDS011;19207;-23.482;-46.500;2023-06-14T09:21:26;19.48;;;9.90;;
21014;SDS011;19207;-23.482;-46.500;2023-06-14T09:24:13;17.25;;;8.93;;
21014;SDS011;19207;-23.482;-46.500;2023-06-14T09:27:01;15.75;;;8.93;;
21014;SDS011;19207;-23.482;-46.500;2023-06-14T09:29:48;13.40;;;8.02;;
21014;SDS011;19207;-23.482;-46.500;2023-06-14T09:32:41;19.70;;;9.65;;
21014;SDS011;19207;-23.482;-46.500;2023-06-14T09:35:28;17.70;;;9.60;;
21014;SDS011;19207;-23.482;-46.500;2023-06-14T09:38:16;20.17;;;12.30;;
21014;SDS011;19207;-23.482;-46.500;2023-06-14T09:41:04;17.33;;;9.23;;
21014;SDS011;19207;-23.482;-46.500;2023-06-14T09:43:50;22.33;;;10.35;;
21014;SDS011;19207;-23.482;-46.500;2023-06-14T09:46:37;18.35;;;9.57;;
21014;SDS011;19207;-23.482;-46.500;2023-06-14T09:49:24;22.48;;;10.30;;
21014;SDS011;19207;-23.482;-46.500;2023-06-14T09:52:15;19.00;;;10.27;;
21014;SDS011;19207;-23.482;-46.500;2023-06-14T09:55:02;20.37;;;9.65;;
21014;SDS011;19207;-23.482;-46.500;2023-06-14T09:57:56;19.80;;;9.85;;
21014;SDS011;19207;-23.482;-46.500;2023-06-14T10:00:44;16.85;;;9.75;;
21014;SDS011;19207;-23.482;-46.500;2023-06-14T10:03:32;18.30;;;10.10;;
21014;SDS011;19207;-23.482;-46.500;2023-06-14T10:06:20;22.08;;;10.60;;
21014;SDS011;19207;-23.482;-46.500;2023-06-14T10:09:09;20.35;;;10.80;;
21014;SDS011;19207;-23.482;-46.500;2023-06-14T10:11:57;27.00;;;20.08;;
21014;SDS011;19207;-23.482;-46.500;2023-06-14T10:14:44;18.37;;;10.48;;
21014;SDS011;19207;-23.482;-46.500;2023-06-14T10:17:43;23.42;;;10.88;;
21014;SDS011;19207;-23.482;-46.500;2023-06-14T10:23:22;22.48;;;10.95;;
21014;SDS011;19207;-23.482;-46.500;2023-06-14T10:26:17;24.35;;;10.50;;
21014;SDS011;19207;-23.482;-46.500;2023-06-14T10:29:08;19.52;;;10.90;;
21014;SDS011;19207;-23.482;-46.500;2023-06-14T10:31:58;21.77;;;10.88;;
21014;SDS011;19207;-23.482;-46.500;2023-06-14T10:34:45;22.60;;;11.27;;
21014;SDS011;19207;-23.482;-46.500;2023-06-14T10:37:31;28.73;;;11.32;;
21014;SDS011;19207;-23.482;-46.500;2023-06-14T10:40:30;26.85;;;11.70;;
21014;SDS011;19207;-23.482;-46.500;2023-06-14T10:43:23;28.92;;;12.98;;
21014;SDS011;19207;-23.482;-46.500;2023-06-14T10:46:14;26.55;;;13.48;;
21014;SDS011;19207;-23.482;-46.500;2023-06-14T10:49:02;44.33;;;20.27;;
21014;SDS011;19207;-23.482;-46.500;2023-06-14T10:51:50;41.75;;;19.95;;
21014;SDS011;19207;-23.482;-46.500;2023-06-14T10:54:38;36.53;;;17.42;;
21014;SDS011;19207;-23.482;-46.500;2023-06-14T10:57:25;36.40;;;18.40;;
21014;SDS011;19207;-23.482;-46.500;2023-06-14T11:00:13;36.67;;;18.30;;
21014;SDS011;19207;-23.482;-46.500;2023-06-14T11:06:14;43.15;;;26.12;;
21014;SDS011;19207;-23.482;-46.500;2023-06-14T11:09:10;35.10;;;17.85;;
21014;SDS011;19207;-23.482;-46.500;2023-06-14T11:12:00;41.55;;;17.87;;
21014;SDS011;19207;-23.482;-46.500;2023-06-14T11:14:48;34.47;;;17.65;;
21014;SDS011;19207;-23.482;-46.500;2023-06-14T11:17:35;38.95;;;18.08;;
21014;SDS011;19207;-23.482;-46.500;2023-06-14T11:20:23;38.13;;;19.20;;
21014;SDS011;19207;-23.482;-46.500;2023-06-14T11:23:11;35.25;;;19.17;;
21014;SDS011;19207;-23.482;-46.500;2023-06-14T11:25:58;37.35;;;18.80;;
21014;SDS011;19207;-23.482;-46.500;2023-06-14T11:28:45;41.55;;;18.23;;
21014;SDS011;19207;-23.482;-46.500;2023-06-14T11:31:32;29.63;;;14.43;;
21014;SDS011;19207;-23.482;-46.500;2023-06-14T11:34:20;29.67;;;14.20;;
21014;SDS011;19207;-23.482;-46.500;2023-06-14T11:37:06;29.00;;;13.98;;
21014;SDS011;19207;-23.482;-46.500;2023-06-14T11:39:55;21.83;;;12.35;;
21014;SDS011;19207;-23.482;-46.500;2023-06-14T11:42:42;27.37;;;15.68;;
21014;SDS011;19207;-23.482;-46.500;2023-06-14T11:45:30;26.12;;;20.30;;
21014;SDS011;19207;-23.482;-46.500;2023-06-14T11:48:16;19.10;;;10.45;;
21014;SDS011;19207;-23.482;-46.500;2023-06-14T11:51:03;21.12;;;10.60;;
21014;SDS011;19207;-23.482;-46.500;2023-06-14T11:53:50;17.85;;;10.40;;
21014;SDS011;19207;-23.482;-46.500;2023-06-14T11:56:37;19.65;;;11.02;;
21014;SDS011;19207;-23.482;-46.500;2023-06-14T11:59:24;26.73;;;12.70;;
21014;SDS011;19207;-23.482;-46.500;2023-06-14T12:02:15;27.20;;;13.70;;
21014;SDS011;19207;-23.482;-46.500;2023-06-14T12:05:05;25.33;;;14.00;;
21014;SDS011;19207;-23.482;-46.500;2023-06-14T12:08:02;28.05;;;12.80;;
21014;SDS011;19207;-23.482;-46.500;2023-06-14T12:10:51;26.10;;;13.02;;
21014;SDS011;19207;-23.482;-46.500;2023-06-14T12:13:38;26.08;;;17.85;;
21014;SDS011;19207;-23.482;-46.500;2023-06-14T12:16:34;20.70;;;11.73;;
21014;SDS011;19207;-23.482;-46.500;2023-06-14T12:19:21;24.65;;;10.73;;
21014;SDS011;19207;-23.482;-46.500;2023-06-14T12:22:13;21.20;;;11.93;;
21014;SDS011;19207;-23.482;-46.500;2023-06-14T12:24:59;21.77;;;11.75;;
21014;SDS011;19207;-23.482;-46.500;2023-06-14T12:27:48;21.80;;;11.85;;
21014;SDS011;19207;-23.482;-46.500;2023-06-14T12:30:36;25.17;;;13.98;;
21014;SDS011;19207;-23.482;-46.500;2023-06-14T12:33:25;25.48;;;12.55;;
21014;SDS011;19207;-23.482;-46.500;2023-06-14T12:36:11;25.98;;;13.30;;
21014;SDS011;19207;-23.482;-46.500;2023-06-14T12:38:58;24.05;;;13.20;;
21014;SDS011;19207;-23.482;-46.500;2023-06-14T12:41:45;36.95;;;15.48;;
21014;SDS011;19207;-23.482;-46.500;2023-06-14T12:44:31;27.08;;;14.90;;
21014;SDS011;19207;-23.482;-46.500;2023-06-14T12:47:21;30.55;;;15.60;;
21014;SDS011;19207;-23.482;-46.500;2023-06-14T12:50:08;29.08;;;14.82;;
21014;SDS011;19207;-23.482;-46.500;2023-06-14T12:52:57;30.88;;;16.25;;
21014;SDS011;19207;-23.482;-46.500;2023-06-14T12:55:46;28.30;;;15.82;;
21014;SDS011;19207;-23.482;-46.500;2023-06-14T12:58:32;27.70;;;15.25;;
21014;SDS011;19207;-23.482;-46.500;2023-06-14T13:01:19;33.35;;;15.95;;
21014;SDS011;19207;-23.482;-46.500;2023-06-14T13:04:06;24.42;;;14.38;;
21014;SDS011;19207;-23.482;-46.500;2023-06-14T13:06:52;24.20;;;15.05;;
21014;SDS011;19207;-23.482;-46.500;2023-06-14T13:09:39;22.37;;;14.40;;
21014;SDS011;19207;-23.482;-46.500;2023-06-14T13:12:26;30.08;;;23.58;;
21014;SDS011;19207;-23.482;-46.500;2023-06-14T13:15:12;26.65;;;15.02;;
21014;SDS011;19207;-23.482;-46.500;2023-06-14T13:17:59;25.85;;;14.63;;
21014;SDS011;19207;-23.482;-46.500;2023-06-14T13:20:46;22.02;;;13.32;;
21014;SDS011;19207;-23.482;-46.500;2023-06-14T13:23:33;23.12;;;14.20;;
21014;SDS011;19207;-23.482;-46.500;2023-06-14T13:26:19;23.10;;;13.35;;
21014;SDS011;19207;-23.482;-46.500;2023-06-14T13:29:06;24.77;;;14.27;;
21014;SDS011;19207;-23.482;-46.500;2023-06-14T13:31:53;23.08;;;14.60;;
21014;SDS011;19207;-23.482;-46.500;2023-06-14T13:34:42;23.00;;;13.82;;
21014;SDS011;19207;-23.482;-46.500;2023-06-14T13:37:29;26.42;;;13.77;;
21014;SDS011;19207;-23.482;-46.500;2023-06-14T13:40:16;24.12;;;14.80;;
21014;SDS011;19207;-23.482;-46.500;2023-06-14T13:43:03;42.50;;;29.40;;
21014;SDS011;19207;-23.482;-46.500;2023-06-14T13:45:50;34.72;;;23.95;;
21014;SDS011;19207;-23.482;-46.500;2023-06-14T13:48:37;26.15;;;15.02;;
21014;SDS011;19207;-23.482;-46.500;2023-06-14T13:51:23;30.45;;;14.48;;
21014;SDS011;19207;-23.482;-46.500;2023-06-14T13:54:12;29.02;;;15.68;;
21014;SDS011;19207;-23.482;-46.500;2023-06-14T13:57:02;26.92;;;14.07;;
21014;SDS011;19207;-23.482;-46.500;2023-06-14T13:59:49;21.42;;;12.57;;
21014;SDS011;19207;-23.482;-46.500;2023-06-14T14:02:36;19.20;;;12.40;;
21014;SDS011;19207;-23.482;-46.500;2023-06-14T14:05:23;20.75;;;12.63;;
21014;SDS011;19207;-23.482;-46.500;2023-06-14T14:08:13;18.65;;;12.07;;
21014;SDS011;19207;-23.482;-46.500;2023-06-14T14:11:00;22.62;;;12.35;;
21014;SDS011;19207;-23.482;-46.500;2023-06-14T14:13:47;23.42;;;12.52;;
21014;SDS011;19207;-23.482;-46.500;2023-06-14T14:16:34;21.37;;;12.45;;
21014;SDS011;19207;-23.482;-46.500;2023-06-14T14:19:22;20.92;;;12.73;;
21014;SDS011;19207;-23.482;-46.500;2023-06-14T14:22:09;22.73;;;14.30;;
21014;SDS011;19207;-23.482;-46.500;2023-06-14T14:24:55;26.20;;;13.98;;
21014;SDS011;19207;-23.482;-46.500;2023-06-14T14:27:42;25.88;;;14.43;;
21014;SDS011;19207;-23.482;-46.500;2023-06-14T14:30:29;24.48;;;12.43;;
21014;SDS011;19207;-23.482;-46.500;2023-06-14T14:33:16;20.60;;;12.90;;
21014;SDS011;19207;-23.482;-46.500;2023-06-14T14:36:04;17.20;;;12.15;;
21014;SDS011;19207;-23.482;-46.500;2023-06-14T14:38:52;21.33;;;14.13;;
21014;SDS011;19207;-23.482;-46.500;2023-06-14T14:41:39;24.12;;;14.70;;
21014;SDS011;19207;-23.482;-46.500;2023-06-14T14:44:26;23.52;;;14.77;;
21014;SDS011;19207;-23.482;-46.500;2023-06-14T14:47:13;26.02;;;15.38;;
21014;SDS011;19207;-23.482;-46.500;2023-06-14T14:49:59;24.70;;;16.00;;
21014;SDS011;19207;-23.482;-46.500;2023-06-14T14:52:46;27.20;;;16.70;;
21014;SDS011;19207;-23.482;-46.500;2023-06-14T14:55:32;30.52;;;16.90;;
21014;SDS011;19207;-23.482;-46.500;2023-06-14T14:58:22;38.60;;;27.05;;
21014;SDS011;19207;-23.482;-46.500;2023-06-14T15:01:09;28.92;;;16.25;;
21014;SDS011;19207;-23.482;-46.500;2023-06-14T15:03:56;32.33;;;17.50;;
21014;SDS011;19207;-23.482;-46.500;2023-06-14T15:06:44;29.85;;;17.48;;
21014;SDS011;19207;-23.482;-46.500;2023-06-14T15:09:30;34.20;;;17.17;;
21014;SDS011;19207;-23.482;-46.500;2023-06-14T15:12:17;36.10;;;24.95;;
21014;SDS011;19207;-23.482;-46.500;2023-06-14T15:15:08;33.15;;;20.62;;
21014;SDS011;19207;-23.482;-46.500;2023-06-14T15:17:55;35.58;;;19.90;;
21014;SDS011;19207;-23.482;-46.500;2023-06-14T15:20:42;39.20;;;18.85;;
21014;SDS011;19207;-23.482;-46.500;2023-06-14T15:23:29;35.15;;;19.10;;
21014;SDS011;19207;-23.482;-46.500;2023-06-14T15:26:16;27.62;;;16.83;;
21014;SDS011;19207;-23.482;-46.500;2023-06-14T15:29:06;27.98;;;16.80;;
21014;SDS011;19207;-23.482;-46.500;2023-06-14T15:31:53;28.58;;;16.15;;
21014;SDS011;19207;-23.482;-46.500;2023-06-14T15:34:40;27.35;;;15.98;;
21014;SDS011;19207;-23.482;-46.500;2023-06-14T15:37:28;26.87;;;15.18;;
21014;SDS011;19207;-23.482;-46.500;2023-06-14T15:40:15;21.35;;;14.55;;
21014;SDS011;19207;-23.482;-46.500;2023-06-14T15:43:02;23.95;;;15.93;;
21014;SDS011;19207;-23.482;-46.500;2023-06-14T15:45:48;22.17;;;12.30;;
21014;SDS011;19207;-23.482;-46.500;2023-06-14T15:48:34;19.42;;;12.23;;
21014;SDS011;19207;-23.482;-46.500;2023-06-14T15:51:21;22.33;;;12.00;;
21014;SDS011;19207;-23.482;-46.500;2023-06-14T15:54:08;19.25;;;10.90;;
21014;SDS011;19207;-23.482;-46.500;2023-06-14T15:56:55;16.30;;;13.18;;
21014;SDS011;19207;-23.482;-46.500;2023-06-14T15:59:41;16.80;;;9.55;;
21014;SDS011;19207;-23.482;-46.500;2023-06-14T16:02:28;17.15;;;10.95;;